Terminal Aerodrome Forecast
Issued by NWS Blacksburg, VA

Current Version | Previous Version | Graphics & Text | Print | Product List | Glossary On
Versions: 1 2 3 4 5 6 7 8 9 10 11 12 13 14 15 16 17 18 19 20 21 22 23 24 25 26 27 28 29 30 31 32 33
000
FTUS41 KRNK 300525
TAFBLF
TAF
KBLF 300525Z 3006/3106 24004KT P6SM SCT020
     FM300900 27005KT P6SM SCT015 BKN045
      TEMPO 3010/3013 BKN015
     FM301500 27007KT P6SM SCT035
     FM301700 28008KT P6SM BKN040
     FM310000 32004KT P6SM SCT045=

USA.gov is the U.S. government's official web portal to all federal, state and local government web resources and services.